Time;durP1;ratioP1;P1;durP2;ratioP2;P2;SDS_P1;SDS_P2;PMS_P1;PMS_P2;Temp;Humidity;BMP_temperature;BMP_pressure;BME280_temperature;BME280_humidity;BME280_pressure;Samples;Min_cycle;Max_cycle;Signal;HPM_P1;HPM_P2
2023/08/29 10:00:50;;;;;;;9.73;3.60;;;28.60;99.90;;;;;;4976788;23;20053;-75
2023/08/29 10:03:19;;;;;;;8.85;2.95;;;28.70;99.90;;;;;;4998542;28;20047;-75
2023/08/29 10:05:46;;;;;;;7.72;3.58;;;28.90;99.90;;;;;;4990754;28;20052;-77
2023/08/29 10:08:19;;;;;;;6.43;2.75;;;28.90;99.90;;;;;;4981632;28;20102;-76
2023/08/29 10:10:47;;;;;;;4.88;2.88;;;29.10;99.90;;;;;;4987972;28;20138;-74
2023/08/29 10:13:15;;;;;;;5.43;2.42;;;29.10;99.90;;;;;;4985038;28;20046;-76
2023/08/29 10:15:43;;;;;;;5.60;2.28;;;29.00;99.90;;;;;;4993666;28;20050;-76
2023/08/29 10:18:13;;;;;;;6.60;2.30;;;29.10;99.90;;;;;;4995512;28;20062;-78
2023/08/29 10:20:44;;;;;;;6.72;2.97;;;29.20;99.90;;;;;;4988737;28;20137;-77
2023/08/29 10:23:13;;;;;;;5.45;3.20;;;29.50;99.90;;;;;;4989521;28;20038;-76
2023/08/29 10:25:41;;;;;;;6.72;2.83;;;29.50;99.90;;;;;;4986255;28;20186;-78
2023/08/29 10:28:13;;;;;;;4.30;2.10;;;29.50;99.90;;;;;;4981595;28;20035;-75
2023/08/29 10:30:45;;;;;;;5.57;2.47;;;29.60;99.90;;;;;;4985000;28;20086;-76
2023/08/29 10:33:14;;;;;;;11.80;3.15;;;29.60;99.90;;;;;;4988561;28;20414;-77
2023/08/29 10:35:42;;;;;;;4.78;2.20;;;29.60;99.90;;;;;;4996898;28;20395;-76
2023/08/29 10:38:15;;;;;;;4.63;2.83;;;29.90;99.90;;;;;;4997757;28;20039;-78
2023/08/29 10:40:43;;;;;;;6.68;3.58;;;30.10;99.90;;;;;;4981675;28;20404;-76
2023/08/29 10:43:18;;;;;;;6.93;4.15;;;30.10;99.90;;;;;;4982905;28;20043;-78
2023/08/29 10:45:50;;;;;;;8.48;3.40;;;30.30;99.90;;;;;;4999906;28;20054;-76
2023/08/29 10:48:19;;;;;;;16.10;6.50;;;30.40;99.90;;;;;;4982538;28;20039;-75
2023/08/29 10:50:49;;;;;;;7.10;2.63;;;30.60;99.90;;;;;;4983160;28;20038;-76
2023/08/29 10:53:20;;;;;;;10.05;3.65;;;30.70;99.90;;;;;;4981804;28;20134;-76
2023/08/29 10:56:03;;;;;;;9.90;3.00;;;31.00;99.90;;;;;;4984488;28;20053;-76
2023/08/29 10:58:34;;;;;;;6.15;2.22;;;31.20;99.90;;;;;;4996673;28;20054;-76
2023/08/29 11:01:02;;;;;;;6.07;2.00;;;31.00;99.90;;;;;;5013408;28;20487;-77
2023/08/29 11:03:48;;;;;;;5.13;2.25;;;30.50;99.90;;;;;;4997040;28;20085;-77
2023/08/29 11:06:16;;;;;;;4.97;2.40;;;30.40;99.90;;;;;;4985579;28;20129;-75
2023/08/29 11:08:44;;;;;;;5.15;2.92;;;30.60;99.90;;;;;;4981981;28;20063;-77
2023/08/29 11:11:16;;;;;;;6.20;2.28;;;30.90;99.90;;;;;;4990730;28;20046;-77
2023/08/29 11:14:00;;;;;;;7.05;3.00;;;31.00;99.90;;;;;;4984561;28;20134;-75
2023/08/29 11:16:28;;;;;;;5.75;2.20;;;31.00;99.90;;;;;;4982739;28;20050;-76
2023/08/29 11:19:12;;;;;;;6.50;2.17;;;31.30;99.90;;;;;;4978685;28;20097;-76
2023/08/29 11:21:39;;;;;;;5.00;2.25;;;31.40;99.90;;;;;;4985222;28;20046;-76
2023/08/29 11:24:09;;;;;;;4.15;1.80;;;31.50;99.90;;;;;;4985336;28;20114;-75
2023/08/29 11:26:40;;;;;;;4.90;2.50;;;31.40;99.90;;;;;;4989881;28;20046;-76
2023/08/29 11:29:08;;;;;;;4.07;1.70;;;31.10;99.90;;;;;;4990211;28;20047;-77
2023/08/29 11:31:40;;;;;;;5.65;2.50;;;30.90;99.90;;;;;;4988917;28;20047;-76
2023/08/29 11:34:17;;;;;;;5.30;1.95;;;30.80;99.90;;;;;;4993336;28;20054;-76
2023/08/29 11:36:47;;;;;;;4.50;1.90;;;30.80;99.90;;;;;;4988545;28;20058;-75
2023/08/29 11:39:17;;;;;;;3.42;1.60;;;30.70;99.90;;;;;;4991654;28;20062;-76
2023/08/29 11:41:45;;;;;;;5.45;2.17;;;30.70;99.90;;;;;;4992523;28;20061;-76
2023/08/29 11:44:13;;;;;;;5.75;1.77;;;30.70;99.90;;;;;;4997515;28;20058;-76
2023/08/29 11:46:40;;;;;;;5.50;2.17;;;30.70;99.90;;;;;;5002547;28;20062;-76
2023/08/29 11:49:17;;;;;;;7.68;6.30;;;30.70;99.90;;;;;;5002112;28;20141;-76
2023/08/29 11:51:45;;;;;;;4.68;1.85;;;31.00;99.90;;;;;;5004358;28;20045;-77
2023/08/29 11:54:38;;;;;;;4.07;2.55;;;31.10;99.90;;;;;;5006039;28;20089;-76
2023/08/29 11:57:06;;;;;;;5.70;1.80;;;31.00;99.90;;;;;;5010821;28;20056;-77
2023/08/29 11:59:34;;;;;;;7.35;2.05;;;30.90;99.90;;;;;;5006402;28;20061;-75
2023/08/29 12:02:01;;;;;;;5.10;2.20;;;30.70;99.90;;;;;;5004512;28;20043;-77
2023/08/29 12:04:30;;;;;;;5.90;2.33;;;30.60;99.90;;;;;;5005868;28;20062;-76
2023/08/29 12:07:08;;;;;;;9.27;2.38;;;30.50;99.90;;;;;;5003520;28;20038;-77
2023/08/29 12:09:35;;;;;;;6.93;2.25;;;30.30;99.90;;;;;;5004099;28;20094;-76
2023/08/29 12:12:02;;;;;;;5.25;2.00;;;30.30;99.90;;;;;;5006710;28;20074;-76
2023/08/29 12:14:30;;;;;;;4.57;2.00;;;30.10;99.90;;;;;;5000645;28;20058;-76
2023/08/29 12:16:57;;;;;;;4.97;1.90;;;30.20;99.90;;;;;;4992947;28;20065;-77
2023/08/29 12:19:25;;;;;;;5.13;1.52;;;30.10;99.90;;;;;;4994712;28;20050;-76
2023/08/29 12:21:56;;;;;;;5.53;2.30;;;30.10;99.90;;;;;;4996378;28;20085;-77
2023/08/29 12:24:24;;;;;;;6.35;2.30;;;30.30;99.90;;;;;;4989248;28;20042;-76
2023/08/29 12:26:51;;;;;;;6.28;2.70;;;30.20;99.90;;;;;;4984964;28;20046;-76
2023/08/29 12:29:19;;;;;;;3.65;1.58;;;30.20;99.90;;;;;;4991046;28;20589;-77
2023/08/29 12:32:10;;;;;;;5.25;2.42;;;30.30;99.90;;;;;;4994768;28;20070;-77
2023/08/29 12:34:38;;;;;;;9.63;2.10;;;30.10;99.90;;;;;;4982544;28;20074;-75
2023/08/29 12:37:09;;;;;;;4.15;1.80;;;30.00;99.90;;;;;;4983023;28;20497;-78
2023/08/29 12:39:37;;;;;;;7.35;3.53;;;29.90;99.90;;;;;;4993245;28;20038;-76
2023/08/29 12:42:05;;;;;;;4.65;2.60;;;29.90;99.90;;;;;;4984651;28;20049;-78
2023/08/29 12:44:33;;;;;;;5.15;1.60;;;29.90;99.90;;;;;;4995408;28;20058;-76
2023/08/29 12:47:00;;;;;;;5.93;2.10;;;29.90;99.90;;;;;;4991145;28;20049;-76
2023/08/29 12:49:28;;;;;;;4.45;1.88;;;29.90;99.90;;;;;;4984451;28;20138;-76
2023/08/29 12:51:55;;;;;;;7.45;2.78;;;29.90;99.90;;;;;;4989849;28;20047;-77
2023/08/29 12:54:24;;;;;;;3.67;1.27;;;29.80;99.90;;;;;;4984405;28;20141;-76
2023/08/29 12:57:00;;;;;;;5.53;1.58;;;29.60;99.90;;;;;;4984654;28;20062;-77
2023/08/29 12:59:27;;;;;;;;;;;29.30;99.90;;;;;;4986085;28;20050;-76
2023/08/29 13:01:54;;;;;;;4.32;1.63;;;29.10;99.90;;;;;;4970138;28;19962;-76
2023/08/29 13:04:22;;;;;;;5.57;2.20;;;29.20;99.90;;;;;;4984600;28;20046;-76
2023/08/29 13:06:49;;;;;;;5.20;1.70;;;29.50;99.90;;;;;;4981445;28;20031;-77
2023/08/29 13:09:32;;;;;;;5.70;2.08;;;29.70;99.90;;;;;;4984811;28;20544;-75
2023/08/29 13:12:09;;;;;;;5.68;2.70;;;29.60;99.90;;;;;;4985890;28;20038;-77
2023/08/29 13:14:42;;;;;;;13.80;11.13;;;29.90;99.90;;;;;;4981776;28;20042;-76
2023/08/29 13:17:12;;;;;;;5.43;2.17;;;30.20;99.90;;;;;;4991853;28;20573;-76
2023/08/29 13:19:42;;;;;;;5.30;2.72;;;30.40;99.90;;;;;;4991255;28;20081;-75
2023/08/29 13:22:10;;;;;;;6.03;3.03;;;30.30;99.90;;;;;;5003943;28;20098;-78
2023/08/29 13:24:39;;;;;;;5.05;1.80;;;30.30;99.90;;;;;;4995998;28;20038;-77
2023/08/29 13:27:08;;;;;;;3.20;1.45;;;30.30;99.90;;;;;;4985505;28;20046;-76
2023/08/29 13:29:36;;;;;;;6.13;3.58;;;30.20;99.90;;;;;;4982604;28;20043;-75
2023/08/29 13:32:04;;;;;;;5.85;2.47;;;30.00;99.90;;;;;;4985488;28;20101;-76
2023/08/29 13:34:32;;;;;;;4.85;1.50;;;29.90;99.90;;;;;;4982387;28;20046;-75
2023/08/29 13:36:59;;;;;;;4.80;1.60;;;29.80;99.90;;;;;;4998104;28;20046;-77
2023/08/29 13:39:29;;;;;;;4.30;1.33;;;30.00;99.90;;;;;;4983906;28;20050;-77
2023/08/29 13:41:58;;;;;;;3.50;1.42;;;30.30;99.90;;;;;;4991247;28;20038;-77
2023/08/29 13:44:25;;;;;;;4.30;1.85;;;30.40;99.90;;;;;;4977734;28;20130;-78
2023/08/29 13:46:53;;;;;;;6.90;2.75;;;30.30;99.90;;;;;;4979712;28;20096;-76
2023/08/29 13:49:20;;;;;;;14.13;1.98;;;30.30;99.90;;;;;;4985942;28;20130;-76
2023/08/29 13:51:48;;;;;;;3.47;2.15;;;30.30;99.90;;;;;;4999418;28;20034;-74
2023/08/29 13:54:16;;;;;;;4.82;2.70;;;30.20;99.90;;;;;;4980956;28;20042;-78
2023/08/29 13:56:44;;;;;;;3.63;1.83;;;30.10;99.90;;;;;;4980858;28;20046;-79
2023/08/29 13:59:13;;;;;;;4.82;2.67;;;30.00;99.90;;;;;;4984546;28;20134;-76
2023/08/29 14:01:40;;;;;;;5.88;2.17;;;30.00;99.90;;;;;;4980692;28;20142;-76
2023/08/29 14:04:08;;;;;;;4.93;2.00;;;29.90;99.90;;;;;;4980882;28;20038;-77
2023/08/29 14:06:41;;;;;;;11.38;1.80;;;29.90;99.90;;;;;;4983026;28;20406;-76
2023/08/29 14:09:09;;;;;;;4.93;2.08;;;29.90;99.90;;;;;;4978597;28;20082;-76
2023/08/29 14:11:39;;;;;;;5.50;2.50;;;29.80;99.90;;;;;;4991607;28;20062;-76
2023/08/29 14:14:07;;;;;;;4.72;1.55;;;29.80;99.90;;;;;;4997571;28;20073;-77
2023/08/29 14:16:37;;;;;;;3.55;1.60;;;29.70;99.90;;;;;;4984331;28;20066;-76
2023/08/29 14:19:08;;;;;;;6.82;1.90;;;29.70;99.90;;;;;;4982914;28;20502;-76
2023/08/29 14:21:38;;;;;;;3.72;1.52;;;29.60;99.90;;;;;;4994522;28;20047;-77
2023/08/29 14:24:06;;;;;;;4.20;1.75;;;29.60;99.90;;;;;;4978548;28;20092;-78
2023/08/29 14:26:33;;;;;;;3.65;1.70;;;29.60;99.90;;;;;;4989656;28;20042;-77
2023/08/29 14:29:11;;;;;;;4.80;1.58;;;29.60;99.90;;;;;;4980979;28;20039;-76
2023/08/29 14:31:41;;;;;;;6.30;2.28;;;29.60;99.90;;;;;;4981013;28;20043;-77
2023/08/29 14:34:09;;;;;;;4.88;2.17;;;29.60;99.90;;;;;;4980438;28;20106;-75
2023/08/29 14:36:36;;;;;;;4.90;3.05;;;29.60;99.90;;;;;;4995655;28;20070;-76
2023/08/29 14:39:04;;;;;;;9.75;3.05;;;29.60;99.90;;;;;;4987582;28;20062;-77
2023/08/29 14:41:31;;;;;;;4.00;1.73;;;29.60;99.90;;;;;;4978888;28;20066;-75
2023/08/29 14:43:59;;;;;;;6.03;2.50;;;29.60;99.90;;;;;;4980364;28;20047;-77
2023/08/29 14:46:34;;;;;;;6.28;2.30;;;29.60;99.90;;;;;;4986782;28;20078;-76
2023/08/29 14:49:06;;;;;;;4.10;1.90;;;29.60;99.90;;;;;;4976852;28;20049;-77
2023/08/29 14:51:35;;;;;;;4.45;2.05;;;29.60;99.90;;;;;;4977907;28;20049;-76
2023/08/29 14:56:54;;;;;;;4.25;1.48;;;29.60;99.90;;;;;;4981074;28;20047;-77
2023/08/29 14:59:24;;;;;;;4.43;1.70;;;29.80;99.90;;;;;;4983308;28;20622;-76
2023/08/29 15:01:52;;;;;;;4.35;2.10;;;29.80;99.90;;;;;;4987214;28;20058;-75
2023/08/29 15:04:23;;;;;;;6.25;2.25;;;29.90;99.90;;;;;;4980085;28;20101;-76
2023/08/29 15:06:50;;;;;;;3.78;1.70;;;29.90;99.90;;;;;;4987669;28;20042;-76
2023/08/29 15:09:18;;;;;;;3.97;1.95;;;29.80;99.90;;;;;;4987541;28;20051;-75
2023/08/29 15:11:46;;;;;;;3.78;1.58;;;29.80;99.90;;;;;;4987002;28;20043;-76
2023/08/29 15:14:18;;;;;;;6.05;1.50;;;29.70;99.90;;;;;;4995718;28;20042;-75
2023/08/29 15:16:46;;;;;;;4.32;1.95;;;29.60;99.90;;;;;;4990444;28;20050;-77
2023/08/29 15:19:14;;;;;;;3.05;1.60;;;29.40;99.90;;;;;;5005574;28;20078;-76
2023/08/29 15:21:43;;;;;;;4.65;1.85;;;29.20;99.90;;;;;;5016907;28;20049;-76
2023/08/29 15:24:48;;;;;;;4.57;1.60;;;29.00;99.90;;;;;;4990742;28;20062;-75
2023/08/29 15:44:36;;;;;;;12.32;5.07;;;28.70;99.90;;;;;;5881479;23;20297;-76
2023/08/29 15:47:04;;;;;;;8.30;3.30;;;28.70;99.90;;;;;;5008566;28;20508;-77
2023/08/29 15:49:31;;;;;;;15.10;10.43;;;28.70;99.90;;;;;;5010741;28;20061;-75
2023/08/29 15:51:59;;;;;;;7.30;4.60;;;28.60;99.90;;;;;;4975645;28;20136;-79
2023/08/29 15:54:26;;;;;;;6.00;2.55;;;28.40;99.90;;;;;;4997258;28;20038;-76
2023/08/29 15:56:54;;;;;;;6.03;3.00;;;28.40;99.90;;;;;;5011999;28;20077;-76
2023/08/29 15:59:21;;;;;;;5.22;2.28;;;28.40;99.90;;;;;;5008881;28;20050;-77
2023/08/29 16:01:50;;;;;;;7.15;2.42;;;28.30;99.90;;;;;;4993507;28;20169;-78
2023/08/29 16:04:18;;;;;;;6.13;3.67;;;28.20;99.90;;;;;;4992676;28;20042;-76
2023/08/29 16:06:45;;;;;;;7.53;5.05;;;28.10;99.90;;;;;;5010577;28;20042;-76
2023/08/29 16:09:13;;;;;;;5.95;2.85;;;28.10;99.90;;;;;;4989171;28;20140;-77
2023/08/29 16:11:41;;;;;;;6.75;3.08;;;28.10;99.90;;;;;;5010494;28;20038;-76
2023/08/29 16:14:08;;;;;;;9.45;3.15;;;28.10;99.90;;;;;;4992742;28;20046;-79
2023/08/29 16:16:35;;;;;;;9.85;2.75;;;28.10;99.90;;;;;;4993329;28;20038;-78
2023/08/29 16:19:04;;;;;;;6.18;2.20;;;27.90;99.90;;;;;;4992849;28;20084;-77
2023/08/29 16:21:32;;;;;;;6.25;2.28;;;27.80;99.90;;;;;;5010820;28;20528;-77
2023/08/29 16:24:00;;;;;;;6.28;3.05;;;27.70;99.90;;;;;;5009995;28;20065;-78
2023/08/29 16:26:27;;;;;;;6.47;2.90;;;27.70;99.90;;;;;;4992113;28;20038;-78
2023/08/29 16:28:54;;;;;;;9.32;2.65;;;27.60;99.90;;;;;;4993117;28;20053;-77
2023/08/29 16:31:22;;;;;;;8.18;3.08;;;27.50;99.90;;;;;;5010459;28;20501;-77
2023/08/29 16:33:49;;;;;;;6.00;3.63;;;27.40;99.90;;;;;;5014093;28;20383;-77
2023/08/29 16:36:20;;;;;;;6.25;4.43;;;27.40;99.90;;;;;;5014659;28;20462;-78
2023/08/29 16:38:47;;;;;;;5.30;2.08;;;27.30;99.90;;;;;;5017685;28;20038;-76
2023/08/29 16:41:15;;;;;;;6.13;1.70;;;27.30;99.90;;;;;;5016919;28;20041;-77
2023/08/29 16:43:42;;;;;;;5.47;2.38;;;27.20;99.90;;;;;;4996678;28;20068;-75
2023/08/29 16:46:10;;;;;;;10.85;3.90;;;27.20;99.90;;;;;;4997615;28;20046;-76
2023/08/29 16:48:37;;;;;;;5.65;2.72;;;27.10;99.90;;;;;;5014452;28;20046;-75
2023/08/29 16:51:04;;;;;;;6.88;2.80;;;27.00;99.90;;;;;;5014070;28;20102;-75
2023/08/29 16:53:33;;;;;;;6.60;2.67;;;26.90;99.90;;;;;;5031626;28;20050;-77
2023/08/29 16:56:06;;;;;;;5.68;2.25;;;26.80;99.90;;;;;;5030959;28;20049;-77
2023/08/29 16:58:34;;;;;;;6.15;2.38;;;26.80;99.90;;;;;;5008740;28;20052;-75
2023/08/29 17:01:02;;;;;;;7.70;2.30;;;26.60;99.90;;;;;;5030206;28;20046;-75
2023/08/29 17:03:29;;;;;;;3.78;1.50;;;26.50;99.90;;;;;;5015336;28;20042;-76
2023/08/29 17:05:56;;;;;;;8.50;4.05;;;26.40;99.90;;;;;;5013835;28;20041;-77
2023/08/29 17:08:25;;;;;;;6.70;2.83;;;26.30;99.90;;;;;;5013726;28;20047;-77
2023/08/29 17:10:54;;;;;;;6.63;2.70;;;26.20;99.90;;;;;;5012422;28;20038;-77
2023/08/29 17:13:21;;;;;;;7.75;3.90;;;26.10;99.90;;;;;;5011807;28;20048;-76
2023/08/29 17:15:48;;;;;;;11.68;7.50;;;26.00;99.90;;;;;;5012758;28;20042;-77
2023/08/29 17:18:16;;;;;;;24.73;20.25;;;25.90;99.90;;;;;;4999283;28;20040;-78
2023/08/29 17:20:44;;;;;;;10.30;6.53;;;25.80;99.90;;;;;;5014576;28;20034;-78
2023/08/29 17:23:11;;;;;;;11.68;4.32;;;25.80;99.90;;;;;;5014869;28;20061;-78
2023/08/29 17:25:40;;;;;;;11.35;3.30;;;25.70;99.90;;;;;;5004368;28;20050;-75
2023/08/29 17:28:13;;;;;;;9.00;3.42;;;25.70;99.90;;;;;;4995997;28;20049;-78
2023/08/29 17:30:42;;;;;;;14.10;10.02;;;25.60;99.90;;;;;;5014082;28;20038;-76
2023/08/29 17:33:10;;;;;;;10.93;6.85;;;25.60;99.90;;;;;;5015764;28;20038;-77
2023/08/29 17:35:37;;;;;;;9.25;4.90;;;25.50;99.90;;;;;;5017087;28;20069;-75
2023/08/29 17:38:05;;;;;;;8.48;5.25;;;25.50;99.90;;;;;;5000559;28;20034;-76
2023/08/29 17:40:32;;;;;;;12.27;7.70;;;25.30;99.90;;;;;;5009622;28;20046;-77
2023/08/29 17:43:00;;;;;;;10.68;6.13;;;25.20;99.90;;;;;;5010544;28;20060;-78
2023/08/29 17:45:30;;;;;;;11.02;5.00;;;25.10;99.90;;;;;;5014388;28;20085;-78
2023/08/29 17:48:14;;;;;;;11.48;7.00;;;25.10;99.90;;;;;;5017239;28;20046;-78
2023/08/29 17:50:44;;;;;;;12.50;6.60;;;25.10;99.90;;;;;;4995126;28;20056;-77
2023/08/29 17:53:11;;;;;;;11.90;4.72;;;25.00;99.90;;;;;;5011034;28;20394;-78
2023/08/29 17:55:39;;;;;;;8.95;4.13;;;24.90;99.90;;;;;;5013963;28;20617;-78
2023/08/29 17:58:10;;;;;;;8.45;4.80;;;24.80;99.90;;;;;;4995149;28;20105;-76
2023/08/29 18:00:39;;;;;;;7.75;4.00;;;24.70;99.90;;;;;;5012549;28;20042;-78
2023/08/29 18:03:06;;;;;;;7.93;3.20;;;24.60;99.90;;;;;;4997315;28;20524;-76
2023/08/29 18:05:35;;;;;;;8.88;3.42;;;24.50;99.90;;;;;;5015375;28;20169;-75
2023/08/29 18:08:02;;;;;;;10.43;4.65;;;24.40;99.90;;;;;;5018764;28;20049;-76
2023/08/29 18:10:29;;;;;;;10.07;4.85;;;24.30;99.90;;;;;;5021048;28;20053;-77
2023/08/29 18:12:57;;;;;;;11.52;6.20;;;24.40;99.90;;;;;;5016042;28;20120;-75
2023/08/29 18:15:24;;;;;;;9.73;5.47;;;24.40;99.90;;;;;;5011803;28;20037;-77
2023/08/29 18:17:53;;;;;;;10.32;5.03;;;24.30;99.90;;;;;;5010149;28;20528;-75
2023/08/29 18:20:20;;;;;;;9.98;4.85;;;24.20;99.90;;;;;;5012566;28;20038;-75
2023/08/29 18:22:47;;;;;;;9.55;5.00;;;24.20;99.90;;;;;;5013643;28;20041;-77
2023/08/29 18:25:14;;;;;;;11.55;5.60;;;24.10;99.90;;;;;;4997455;28;20094;-77
2023/08/29 18:27:42;;;;;;;10.15;5.35;;;24.10;99.90;;;;;;5012417;28;20041;-76
2023/08/29 18:30:11;;;;;;;13.57;4.50;;;24.00;99.90;;;;;;5020145;28;20110;-77
2023/08/29 18:32:38;;;;;;;11.05;4.53;;;24.00;99.90;;;;;;5027754;28;20038;-76
2023/08/29 18:35:09;;;;;;;10.95;5.15;;;23.90;99.90;;;;;;5017832;28;20050;-76
2023/08/29 18:37:36;;;;;;;9.75;4.90;;;23.80;99.90;;;;;;4992771;28;20596;-77
2023/08/29 18:40:04;;;;;;;9.93;4.72;;;23.70;99.90;;;;;;5017583;28;20097;-77
2023/08/29 18:42:40;;;;;;;14.55;5.50;;;23.80;99.90;;;;;;5029495;28;20037;-77
2023/08/29 18:45:09;;;;;;;11.93;4.80;;;23.70;99.90;;;;;;5007555;28;20173;-76
2023/08/29 18:47:36;;;;;;;13.05;5.65;;;23.70;99.90;;;;;;5001894;28;20046;-75
2023/08/29 18:50:04;;;;;;;13.65;7.25;;;23.60;99.90;;;;;;4993013;28;20093;-74
2023/08/29 18:52:33;;;;;;;18.17;8.40;;;23.60;99.90;;;;;;4992153;28;20054;-75
2023/08/29 18:55:01;;;;;;;18.02;10.32;;;23.50;99.90;;;;;;4990552;28;20042;-75
2023/08/29 18:57:31;;;;;;;21.45;12.68;;;23.40;99.90;;;;;;4992614;28;20057;-76
2023/08/29 18:59:59;;;;;;;23.15;11.60;;;23.30;99.90;;;;;;4992591;28;20565;-75
2023/08/29 19:02:34;;;;;;;22.80;13.30;;;23.20;99.90;;;;;;4990760;28;20046;-76
2023/08/29 19:05:03;;;;;;;19.48;10.98;;;23.20;99.90;;;;;;4991867;28;20072;-75
2023/08/29 19:07:33;;;;;;;15.38;7.68;;;23.20;99.90;;;;;;4991467;28;20074;-75
2023/08/29 19:10:01;;;;;;;15.27;7.53;;;23.10;99.90;;;;;;4995078;28;20068;-75
2023/08/29 19:12:32;;;;;;;16.50;10.00;;;22.90;99.90;;;;;;4996242;28;20046;-74
2023/08/29 19:15:00;;;;;;;15.13;6.65;;;22.70;99.90;;;;;;4992057;28;20038;-73
2023/08/29 19:17:33;;;;;;;14.88;6.82;;;22.70;99.90;;;;;;4990707;28;20042;-76
2023/08/29 19:20:01;;;;;;;23.33;8.23;;;22.60;99.90;;;;;;5007402;28;20550;-74
2023/08/29 19:22:32;;;;;;;15.45;7.38;;;22.60;99.90;;;;;;4992166;28;20544;-76
2023/08/29 19:25:01;;;;;;;18.55;8.05;;;22.30;99.90;;;;;;4994375;28;20056;-74
2023/08/29 19:27:30;;;;;;;14.43;7.20;;;22.10;99.90;;;;;;5011569;28;20064;-76
2023/08/29 19:29:58;;;;;;;12.80;6.32;;;22.00;99.90;;;;;;5002286;28;20155;-75
2023/08/29 19:32:26;;;;;;;15.25;6.22;;;22.10;99.90;;;;;;4995931;28;20062;-74
2023/08/29 19:34:53;;;;;;;15.30;6.38;;;22.10;99.90;;;;;;4999550;28;20058;-74
2023/08/29 19:37:21;;;;;;;13.35;7.60;;;22.00;99.90;;;;;;4996618;28;20042;-74
2023/08/29 19:39:49;;;;;;;10.32;5.32;;;21.90;99.90;;;;;;5002608;28;20113;-75
2023/08/29 19:42:18;;;;;;;11.45;5.30;;;22.00;99.90;;;;;;4997895;28;20053;-76
2023/08/29 19:44:45;;;;;;;8.02;4.47;;;21.90;99.90;;;;;;4991135;28;20073;-74
2023/08/29 19:47:12;;;;;;;13.43;5.80;;;21.90;99.90;;;;;;4995344;28;20042;-75
2023/08/29 19:49:41;;;;;;;16.40;9.85;;;21.80;99.90;;;;;;4994085;28;20042;-76
2023/08/29 19:52:08;;;;;;;9.32;4.75;;;21.70;99.90;;;;;;4994609;28;20394;-76
2023/08/29 19:54:39;;;;;;;13.70;4.65;;;21.60;99.90;;;;;;5012893;28;20128;-73
2023/08/29 19:57:06;;;;;;;12.52;4.53;;;21.50;99.90;;;;;;5000979;28;20077;-75
2023/08/29 19:59:35;;;;;;;10.07;4.35;;;21.40;99.90;;;;;;5009241;28;20109;-75
2023/08/29 20:02:03;;;;;;;10.68;3.75;;;21.30;99.90;;;;;;5008696;28;20066;-75
2023/08/29 20:04:30;;;;;;;10.95;3.70;;;21.30;99.90;;;;;;4991682;28;20054;-74
2023/08/29 20:06:57;;;;;;;8.15;4.03;;;21.20;99.90;;;;;;4998651;28;20126;-74
2023/08/29 20:09:26;;;;;;;9.40;3.80;;;21.10;99.90;;;;;;5012814;28;20568;-75
2023/08/29 20:11:54;;;;;;;6.78;3.20;;;21.10;99.90;;;;;;5011213;28;20064;-75
2023/08/29 20:14:21;;;;;;;11.60;3.83;;;21.10;99.90;;;;;;5013538;28;20038;-76
2023/08/29 20:16:52;;;;;;;10.07;3.60;;;21.10;99.90;;;;;;5013569;28;20034;-75
2023/08/29 20:19:22;;;;;;;9.38;3.20;;;21.00;99.90;;;;;;5013786;28;20488;-75
2023/08/29 20:21:50;;;;;;;8.48;3.72;;;20.90;45.50;;;;;;5016123;28;20434;-75
2023/08/29 20:24:18;;;;;;;9.07;4.18;;;20.80;99.90;;;;;;5016579;28;20049;-75
2023/08/29 20:26:46;;;;;;;9.75;4.20;;;20.60;99.90;;;;;;4996332;28;20133;-75
2023/08/29 20:29:14;;;;;;;9.20;3.58;;;20.60;99.90;;;;;;5024160;28;20038;-74
2023/08/29 20:31:41;;;;;;;11.15;5.35;;;20.60;99.90;;;;;;5022227;28;20134;-75
2023/08/29 20:34:10;;;;;;;8.50;4.55;;;20.50;99.90;;;;;;5014620;28;20046;-75
2023/08/29 20:36:37;;;;;;;9.43;4.38;;;20.50;99.90;;;;;;4997416;28;20056;-76
2023/08/29 20:39:14;;;;;;;7.65;3.20;;;20.40;99.90;;;;;;5013474;28;20125;-75
2023/08/29 20:41:41;;;;;;;11.38;6.25;;;20.40;99.90;;;;;;5011830;28;20042;-75
2023/08/29 20:44:09;;;;;;;11.60;5.85;;;20.30;99.90;;;;;;5012105;28;20498;-75
2023/08/29 20:46:36;;;;;;;11.00;4.75;;;20.20;99.90;;;;;;4995626;28;20049;-77
2023/08/29 20:49:04;;;;;;;17.42;6.25;;;20.20;99.90;;;;;;5013089;28;20500;-75
2023/08/29 20:51:35;;;;;;;8.57;2.97;;;20.20;1.00;;;;;;5013454;28;20739;-76
2023/08/29 20:54:03;;;;;;;11.13;3.78;;;20.00;1.00;;;;;;4995189;28;20038;-74
2023/08/29 20:56:30;;;;;;;10.48;4.53;;;19.90;1.00;;;;;;5013457;28;20132;-76
2023/08/29 20:58:58;;;;;;;7.60;3.35;;;19.70;1.00;;;;;;5012971;28;20082;-74
2023/08/29 21:01:38;;;;;;;11.60;3.60;;;19.70;1.00;;;;;;5012181;28;20065;-75
2023/08/29 21:04:05;;;;;;;6.03;3.25;;;19.80;1.00;;;;;;5013363;28;20129;-75
2023/08/29 21:06:34;;;;;;;9.93;4.88;;;19.80;1.00;;;;;;5013344;28;20049;-76
2023/08/29 21:09:02;;;;;;;8.02;3.70;;;19.70;19.70;;;;;;5012094;28;20056;-74
2023/08/29 21:11:29;;;;;;;11.38;6.03;;;19.70;99.90;;;;;;4994041;28;20046;-74
2023/08/29 21:13:58;;;;;;;6.38;3.42;;;19.60;99.90;;;;;;5011413;28;20509;-74
2023/08/29 21:16:27;;;;;;;11.55;4.00;;;19.50;99.90;;;;;;5002761;28;20129;-78
2023/08/29 21:18:54;;;;;;;8.60;3.47;;;19.40;1.00;;;;;;5002603;28;20045;-75
2023/08/29 21:21:22;;;;;;;13.35;4.10;;;19.40;1.00;;;;;;4999767;28;20141;-75
2023/08/29 21:23:51;;;;;;;11.15;3.95;;;19.30;1.00;;;;;;5011691;28;20069;-75
2023/08/29 21:26:18;;;;;;;8.95;3.80;;;19.20;99.90;;;;;;5011284;28;20069;-75
2023/08/29 21:28:46;;;;;;;8.52;3.05;;;19.20;99.90;;;;;;4994422;28;20062;-75
2023/08/29 21:31:14;;;;;;;7.30;2.70;;;19.20;99.90;;;;;;5011649;28;20140;-76
2023/08/29 21:33:41;;;;;;;6.63;2.72;;;19.10;1.00;;;;;;5012477;28;20038;-75
2023/08/29 21:36:09;;;;;;;8.57;3.70;;;19.10;1.00;;;;;;5011659;28;20034;-74
2023/08/29 21:38:36;;;;;;;11.25;3.72;;;19.00;99.90;;;;;;4994084;28;20042;-74
2023/08/29 21:41:05;;;;;;;10.90;4.07;;;18.90;99.90;;;;;;5011224;28;20068;-75
2023/08/29 21:43:33;;;;;;;9.68;4.30;;;18.80;1.00;;;;;;5011613;28;20054;-75
2023/08/29 21:46:02;;;;;;;9.35;3.28;;;18.80;1.00;;;;;;5016454;28;20082;-75
2023/08/29 21:48:29;;;;;;;10.98;4.32;;;18.80;1.00;;;;;;5033008;28;20044;-74
2023/08/29 21:50:57;;;;;;;8.82;3.60;;;18.80;1.00;;;;;;5033852;28;20058;-75
2023/08/29 21:53:25;;;;;;;11.60;3.88;;;18.70;99.90;;;;;;5019678;28;20052;-76
2023/08/29 21:55:53;;;;;;;12.38;4.35;;;18.60;99.90;;;;;;5014724;28;20042;-75
2023/08/29 21:58:22;;;;;;;8.45;3.50;;;18.50;1.00;;;;;;4998621;28;20058;-75
2023/08/29 22:00:51;;;;;;;8.93;4.00;;;18.50;1.00;;;;;;4993650;28;20096;-77
2023/08/29 22:03:19;;;;;;;9.55;3.80;;;18.50;1.00;;;;;;5017854;23;20073;-81
2023/08/29 22:05:46;;;;;;;8.75;2.60;;;18.60;99.90;;;;;;4991889;28;20060;-82
2023/08/29 22:08:14;;;;;;;6.93;3.10;;;18.60;99.90;;;;;;4991865;28;20097;-82
2023/08/29 22:10:42;;;;;;;12.70;3.00;;;18.60;99.90;;;;;;4992161;28;20406;-80
2023/08/29 22:13:10;;;;;;;6.88;3.78;;;18.60;99.90;;;;;;4990908;28;20070;-79
2023/08/29 22:15:39;;;;;;;6.97;2.97;;;18.60;99.90;;;;;;5009539;28;20034;-81
2023/08/29 22:18:07;;;;;;;6.65;2.97;;;18.30;99.90;;;;;;4991612;28;20404;-80
2023/08/29 22:20:34;;;;;;;8.85;3.25;;;18.20;99.90;;;;;;5009520;28;20050;-80
2023/08/29 22:23:02;;;;;;;9.85;3.25;;;18.20;99.90;;;;;;5009346;28;20068;-79
2023/08/29 22:25:29;;;;;;;8.50;3.33;;;18.10;99.90;;;;;;4991845;28;20072;-80
2023/08/29 22:27:57;;;;;;;7.60;3.60;;;18.20;99.90;;;;;;5008904;28;20046;-79
2023/08/29 22:30:25;;;;;;;8.52;2.92;;;18.10;99.90;;;;;;5009766;28;20478;-80
2023/08/29 22:32:54;;;;;;;9.45;3.50;;;18.00;99.90;;;;;;5008800;28;20096;-80
2023/08/29 22:35:22;;;;;;;9.75;3.25;;;17.90;99.90;;;;;;5009896;28;20077;-80
2023/08/29 22:37:49;;;;;;;8.55;3.33;;;17.90;99.90;;;;;;4991383;28;20042;-78
2023/08/29 22:40:17;;;;;;;9.20;3.03;;;17.80;99.90;;;;;;4991686;28;20050;-79
2023/08/29 22:42:45;;;;;;;9.05;3.50;;;17.80;99.90;;;;;;4991197;28;20042;-79
2023/08/29 22:45:14;;;;;;;7.70;3.63;;;17.90;99.90;;;;;;5008950;28;20052;-79
2023/08/29 22:47:41;;;;;;;8.57;3.45;;;17.80;99.90;;;;;;4990458;28;20073;-79
2023/08/29 22:50:11;;;;;;;8.48;3.70;;;17.90;99.90;;;;;;4991590;28;20064;-80
2023/08/29 22:52:39;;;;;;;7.88;3.20;;;17.90;99.90;;;;;;4991371;28;20141;-80
2023/08/29 22:55:07;;;;;;;7.57;2.90;;;18.00;99.90;;;;;;5010027;28;20318;-80
2023/08/29 22:57:34;;;;;;;8.45;3.00;;;18.00;99.90;;;;;;4991800;28;20045;-79
2023/08/29 23:00:02;;;;;;;7.18;2.30;;;18.00;99.90;;;;;;5010483;28;20050;-80
2023/08/29 23:02:29;;;;;;;7.15;2.90;;;18.00;99.90;;;;;;5009935;28;20049;-78
2023/08/29 23:04:56;;;;;;;8.05;3.00;;;18.00;99.90;;;;;;5009885;28;20050;-79
2023/08/29 23:07:25;;;;;;;5.47;2.90;;;18.00;99.90;;;;;;5008804;28;20049;-79
2023/08/29 23:09:52;;;;;;;9.35;3.28;;;18.00;99.90;;;;;;4990992;28;20045;-79
2023/08/29 23:12:20;;;;;;;8.25;3.40;;;17.90;99.90;;;;;;4992976;28;20322;-79
2023/08/29 23:14:47;;;;;;;8.48;2.95;;;17.70;99.90;;;;;;5009626;28;20034;-80